createdAt,value
2022-12-06T00:01:23.033Z,7.17
2022-12-06T00:03:54.007Z,5.97
2022-12-06T00:06:23.672Z,5.47
2022-12-06T00:08:52.005Z,5.13
2022-12-06T00:11:23.088Z,4.27
2022-12-06T00:13:55.372Z,7.17
2022-12-06T00:16:23.399Z,4.67
2022-12-06T00:18:50.309Z,7.17
2022-12-06T00:21:28.394Z,4.20
2022-12-06T00:24:07.341Z,7.30
2022-12-06T00:26:43.028Z,5.77
2022-12-06T00:29:15.422Z,6.50
2022-12-06T00:31:42.365Z,4.47
2022-12-06T00:34:09.349Z,5.13
2022-12-06T00:36:39.075Z,6.13
2022-12-06T00:39:11.836Z,6.90
2022-12-06T00:41:39.648Z,7.07
2022-12-06T00:44:07.234Z,5.60
2022-12-06T00:46:35.481Z,5.70
2022-12-06T00:49:04.641Z,5.23
2022-12-06T00:51:33.109Z,5.97
2022-12-06T00:54:00.053Z,4.90
2022-12-06T00:56:27.278Z,6.37
2022-12-06T00:58:54.628Z,6.33
2022-12-06T01:01:27.140Z,4.93
2022-12-06T01:03:59.544Z,4.37
2022-12-06T01:06:30.321Z,6.27
2022-12-06T01:08:59.988Z,6.13
2022-12-06T01:11:27.788Z,7.77
2022-12-06T01:13:55.496Z,7.23
2022-12-06T01:16:27.744Z,7.30
2022-12-06T01:19:03.156Z,5.90
2022-12-06T01:21:30.872Z,5.13
2022-12-06T01:23:57.676Z,6.87
2022-12-06T01:26:33.493Z,7.00
2022-12-06T01:29:01.518Z,4.10
2022-12-06T01:31:35.511Z,5.30
2022-12-06T01:34:06.029Z,9.10
2022-12-06T01:36:33.663Z,7.63
2022-12-06T01:39:01.679Z,5.57
2022-12-06T01:41:28.411Z,5.47
2022-12-06T01:43:56.269Z,5.63
2022-12-06T01:46:45.250Z,5.40
2022-12-06T01:49:11.899Z,6.97
2022-12-06T01:51:43.824Z,8.90
2022-12-06T01:54:13.761Z,5.30
2022-12-06T01:56:40.848Z,11.87
2022-12-06T01:59:09.697Z,10.10
2022-12-06T02:01:39.056Z,8.70
2022-12-06T02:04:07.088Z,8.50
2022-12-06T02:06:34.986Z,9.80
2022-12-06T02:09:05.235Z,37.73
2022-12-06T02:11:35.342Z,20.87
2022-12-06T02:14:09.911Z,27.63
2022-12-06T02:16:55.118Z,23.93
2022-12-06T02:19:54.274Z,26.23
2022-12-06T02:22:45.977Z,8.20
2022-12-06T02:25:34.315Z,5.20
2022-12-06T02:28:05.243Z,5.90
2022-12-06T02:31:00.105Z,6.60
2022-12-06T02:33:44.239Z,6.47
2022-12-06T02:37:09.981Z,15.03
2022-12-06T02:39:49.777Z,8.03
2022-12-06T02:42:23.758Z,11.13
2022-12-06T02:44:54.965Z,10.07
2022-12-06T02:47:27.350Z,6.00
2022-12-06T02:49:57.086Z,7.97
2022-12-06T02:52:27.683Z,7.60
2022-12-06T02:54:57.424Z,7.10
2022-12-06T02:57:35.813Z,10.50
2022-12-06T03:00:02.805Z,10.57
2022-12-06T03:02:31.955Z,14.63
2022-12-06T03:05:13.315Z,7.70
2022-12-06T03:07:45.276Z,9.27
2022-12-06T03:10:41.131Z,8.77
2022-12-06T03:13:25.856Z,10.00
2022-12-06T03:16:07.650Z,7.53
2022-12-06T03:18:44.148Z,9.73
2022-12-06T03:21:19.429Z,7.77
2022-12-06T03:23:51.125Z,7.77
2022-12-06T03:26:25.513Z,8.87
2022-12-06T03:28:56.657Z,10.67
2022-12-06T03:31:24.706Z,6.60
2022-12-06T03:34:01.719Z,7.80
2022-12-06T03:36:31.117Z,8.67
2022-12-06T03:39:05.818Z,10.93
2022-12-06T03:41:39.318Z,10.60
2022-12-06T03:44:06.513Z,11.90
2022-12-06T03:46:39.616Z,8.67
2022-12-06T03:49:18.148Z,8.87
2022-12-06T03:51:46.076Z,7.70
2022-12-06T03:54:13.531Z,8.40
2022-12-06T03:56:40.932Z,7.90
2022-12-06T03:59:10.848Z,8.13
2022-12-06T04:01:39.696Z,7.13
2022-12-06T04:04:07.151Z,10.13
2022-12-06T04:06:33.961Z,10.63
2022-12-06T04:09:20.390Z,7.80
2022-12-06T04:11:47.147Z,8.73
2022-12-06T04:14:14.085Z,9.37
2022-12-06T04:17:00.749Z,12.10
2022-12-06T04:19:27.452Z,10.77
2022-12-06T04:22:12.776Z,9.03
2022-12-06T04:24:39.973Z,12.07
2022-12-06T04:27:25.882Z,9.63
2022-12-06T04:30:11.265Z,14.13
2022-12-06T04:32:56.405Z,11.30
2022-12-06T04:35:41.681Z,10.00
2022-12-06T04:38:26.840Z,14.53
2022-12-06T04:40:53.612Z,11.73
2022-12-06T04:43:38.629Z,10.03
2022-12-06T04:46:07.133Z,11.63
2022-12-06T04:48:33.850Z,11.90
2022-12-06T04:51:00.589Z,12.87
2022-12-06T04:53:27.334Z,11.20
2022-12-06T04:55:54.339Z,12.70
2022-12-06T04:58:21.841Z,9.97
2022-12-06T05:00:55.371Z,14.63
2022-12-06T05:03:22.333Z,15.07
2022-12-06T05:05:50.373Z,9.97
2022-12-06T05:08:17.153Z,17.87
2022-12-06T05:10:48.209Z,13.17
2022-12-06T05:13:15.873Z,11.87
2022-12-06T05:16:03.526Z,11.87
2022-12-06T05:18:30.727Z,10.83
2022-12-06T05:21:16.809Z,13.63
2022-12-06T05:23:44.097Z,12.23
2022-12-06T05:26:13.613Z,13.37
2022-12-06T05:28:40.631Z,17.00
2022-12-06T05:31:07.858Z,15.43
2022-12-06T05:33:35.806Z,11.03
2022-12-06T05:36:15.889Z,10.70
2022-12-06T05:38:45.800Z,10.03
2022-12-06T05:41:15.277Z,11.80
2022-12-06T05:43:42.359Z,11.70
2022-12-06T05:46:09.242Z,11.63
2022-12-06T05:48:36.485Z,12.20
2022-12-06T05:51:03.624Z,8.40
2022-12-06T05:53:30.448Z,12.27
2022-12-06T05:56:03.129Z,12.30
2022-12-06T05:58:29.808Z,11.10
2022-12-06T06:00:57.054Z,10.53
2022-12-06T06:03:24.709Z,11.50
2022-12-06T06:05:56.890Z,9.90
2022-12-06T06:08:23.712Z,11.20
2022-12-06T06:10:51.280Z,9.43
2022-12-06T06:13:18.097Z,10.43
2022-12-06T06:15:44.810Z,13.77
2022-12-06T06:18:12.197Z,10.70
2022-12-06T06:20:39.228Z,12.70
2022-12-06T06:23:06.813Z,10.80
2022-12-06T06:25:33.518Z,12.10
2022-12-06T06:28:00.229Z,13.33
2022-12-06T06:30:27.472Z,14.87
2022-12-06T06:32:54.268Z,12.60
2022-12-06T06:35:21.359Z,10.83
2022-12-06T06:37:48.288Z,12.87
2022-12-06T06:40:15.087Z,11.10
2022-12-06T06:42:42.359Z,12.63
2022-12-06T06:45:09.550Z,18.23
2022-12-06T06:47:36.943Z,14.30
2022-12-06T06:50:04.357Z,13.80
2022-12-06T06:52:30.984Z,16.00
2022-12-06T06:54:57.645Z,21.43
2022-12-06T06:57:25.000Z,19.00
2022-12-06T06:59:52.104Z,23.73
2022-12-06T07:02:19.295Z,18.87
2022-12-06T07:04:46.014Z,18.13
2022-12-06T07:07:19.312Z,21.77
2022-12-06T07:09:48.289Z,25.30
2022-12-06T07:12:15.509Z,23.00
2022-12-06T07:14:42.628Z,25.40
2022-12-06T07:17:09.415Z,30.60
2022-12-06T07:19:36.811Z,26.53
2022-12-06T07:22:03.554Z,30.83
2022-12-06T07:24:30.230Z,32.63
2022-12-06T07:26:57.649Z,30.27
2022-12-06T07:29:24.443Z,31.53
2022-12-06T07:31:53.069Z,26.10
2022-12-06T07:34:19.791Z,42.27
2022-12-06T07:36:46.505Z,37.93
2022-12-06T07:39:15.054Z,31.83
2022-12-06T07:42:01.143Z,30.37
2022-12-06T07:45:02.800Z,31.67
2022-12-06T07:47:38.425Z,34.23
2022-12-06T07:50:12.886Z,30.10
2022-12-06T07:52:43.519Z,29.70
2022-12-06T07:55:11.861Z,28.43
2022-12-06T07:57:43.433Z,29.33
2022-12-06T08:00:14.498Z,25.47
2022-12-06T08:02:41.861Z,21.77
2022-12-06T08:05:09.730Z,25.90
2022-12-06T08:07:37.729Z,26.67
2022-12-06T08:10:05.835Z,24.80
2022-12-06T08:12:32.860Z,29.50
2022-12-06T08:15:00.286Z,30.10
2022-12-06T08:17:29.817Z,24.33
2022-12-06T08:19:57.186Z,22.60
2022-12-06T08:22:24.096Z,28.07
2022-12-06T08:24:50.811Z,31.57
2022-12-06T08:27:17.555Z,33.23
2022-12-06T08:29:45.398Z,30.87
2022-12-06T08:32:13.384Z,32.53
2022-12-06T08:34:40.331Z,27.73
2022-12-06T08:37:08.064Z,20.03
2022-12-06T08:39:34.802Z,21.17
2022-12-06T08:42:06.334Z,13.63
2022-12-06T08:44:33.198Z,21.53
2022-12-06T08:47:01.750Z,12.00
2022-12-06T08:49:30.098Z,13.07
2022-12-06T08:51:59.204Z,11.20
2022-12-06T08:54:27.361Z,10.73
2022-12-06T08:56:54.622Z,10.80
2022-12-06T08:59:21.593Z,9.57
2022-12-06T09:01:48.773Z,9.67
2022-12-06T09:04:15.729Z,9.37
2022-12-06T09:06:44.927Z,11.70
2022-12-06T09:09:13.625Z,8.80
2022-12-06T09:11:41.409Z,7.53
2022-12-06T09:14:19.546Z,9.43
2022-12-06T09:16:50.725Z,8.63
2022-12-06T09:19:17.826Z,5.47
2022-12-06T09:21:46.461Z,6.10
2022-12-06T09:24:16.056Z,5.37
2022-12-06T09:26:44.016Z,5.10
2022-12-06T09:29:11.437Z,7.97
2022-12-06T09:31:41.108Z,4.97
2022-12-06T09:34:09.576Z,3.90
2022-12-06T09:36:43.756Z,5.00
2022-12-06T09:39:21.516Z,4.47
2022-12-06T09:41:57.512Z,4.33
2022-12-06T09:44:37.057Z,4.13
2022-12-06T09:47:06.606Z,4.47
2022-12-06T09:49:54.704Z,5.97
2022-12-06T09:52:40.465Z,4.43
2022-12-06T09:55:10.237Z,4.67
2022-12-06T09:57:58.173Z,4.40
2022-12-06T10:00:28.705Z,5.37
2022-12-06T10:03:14.309Z,5.00
2022-12-06T10:06:03.730Z,4.07
2022-12-06T10:08:39.975Z,4.37
2022-12-06T10:11:15.901Z,4.50
2022-12-06T10:14:20.884Z,4.83
2022-12-06T10:17:18.557Z,4.13
2022-12-06T10:19:50.886Z,5.83
2022-12-06T10:22:36.046Z,3.30
2022-12-06T10:25:16.241Z,4.10
2022-12-06T10:28:11.817Z,5.33
2022-12-06T10:31:06.451Z,4.63
2022-12-06T10:33:53.072Z,5.83
2022-12-06T10:36:35.820Z,3.97
2022-12-06T10:39:17.945Z,4.33
2022-12-06T10:42:09.137Z,3.37
2022-12-06T10:44:45.092Z,3.80
2022-12-06T10:47:16.823Z,2.90
2022-12-06T10:49:55.759Z,2.77
2022-12-06T10:52:43.922Z,3.77
2022-12-06T10:55:10.819Z,2.47
2022-12-06T10:57:43.820Z,3.13
2022-12-06T11:00:25.642Z,2.83
2022-12-06T11:03:47.603Z,2.47
2022-12-06T11:06:33.345Z,2.50
2022-12-06T11:09:13.491Z,2.77
2022-12-06T11:11:41.501Z,2.47
2022-12-06T11:14:27.292Z,2.67
2022-12-06T11:17:39.373Z,2.37
2022-12-06T11:20:15.202Z,2.90
2022-12-06T11:22:48.600Z,2.70
2022-12-06T11:25:36.450Z,3.40
2022-12-06T11:28:21.688Z,3.17
2022-12-06T11:30:54.513Z,4.57
2022-12-06T11:33:34.708Z,2.80
2022-12-06T11:36:05.078Z,3.03
2022-12-06T11:38:35.241Z,5.27
2022-12-06T11:41:04.386Z,3.57
2022-12-06T11:43:35.314Z,2.60
2022-12-06T11:46:04.665Z,3.00
2022-12-06T11:48:34.274Z,3.10
2022-12-06T11:51:01.116Z,4.20
2022-12-06T11:53:42.672Z,2.57
2022-12-06T11:56:20.577Z,3.30
2022-12-06T11:58:56.048Z,2.90
2022-12-06T12:01:46.841Z,2.77
2022-12-06T12:04:24.802Z,2.83
2022-12-06T12:06:57.316Z,3.53
2022-12-06T12:09:26.264Z,3.83
2022-12-06T12:12:03.729Z,4.73
2022-12-06T12:14:39.866Z,3.80
2022-12-06T12:17:34.081Z,3.67
2022-12-06T12:20:08.595Z,3.90
2022-12-06T12:22:42.970Z,3.73
2022-12-06T12:25:29.660Z,2.70
2022-12-06T12:27:58.934Z,3.23
2022-12-06T12:30:32.128Z,3.50
2022-12-06T12:33:07.701Z,3.47
2022-12-06T12:35:37.210Z,3.20
2022-12-06T12:38:11.477Z,3.27
2022-12-06T12:40:45.673Z,3.37
2022-12-06T12:43:12.352Z,4.10
2022-12-06T12:45:41.258Z,4.57
2022-12-06T12:48:26.180Z,4.57
2022-12-06T12:50:58.110Z,3.87
2022-12-06T12:53:36.736Z,4.37
2022-12-06T12:56:08.144Z,4.60
2022-12-06T12:58:36.330Z,3.53
2022-12-06T13:01:19.909Z,4.90
2022-12-06T13:03:51.830Z,3.80
2022-12-06T13:06:32.613Z,4.83
2022-12-06T13:09:03.327Z,3.40
2022-12-06T13:11:31.722Z,4.80
2022-12-06T13:14:00.142Z,6.30
2022-12-06T13:16:35.331Z,4.33
2022-12-06T13:19:02.735Z,4.77
2022-12-06T13:21:37.247Z,5.27
2022-12-06T13:24:10.447Z,7.57
2022-12-06T13:26:39.473Z,5.27
2022-12-06T13:29:37.443Z,5.77
2022-12-06T13:32:15.251Z,4.87
2022-12-06T13:34:49.265Z,4.57
2022-12-06T13:37:43.566Z,5.60
2022-12-06T13:40:50.565Z,3.57
2022-12-06T13:43:27.201Z,4.43
2022-12-06T13:46:00.774Z,4.63
2022-12-06T13:48:27.597Z,4.17
2022-12-06T13:50:57.520Z,5.70
2022-12-06T13:53:26.929Z,4.10
2022-12-06T13:56:14.490Z,4.67
2022-12-06T13:58:49.099Z,5.33
2022-12-06T14:01:39.920Z,5.50
2022-12-06T14:06:56.006Z,10.53
2022-12-06T14:09:24.272Z,10.03
2022-12-06T14:11:51.428Z,10.20
2022-12-06T14:14:23.928Z,6.40
2022-12-06T14:16:54.383Z,7.37
2022-12-06T14:19:21.155Z,10.43
2022-12-06T14:21:56.301Z,5.43
2022-12-06T14:24:38.637Z,5.53
2022-12-06T14:27:17.402Z,6.33
2022-12-06T14:29:58.234Z,6.40
2022-12-06T14:32:38.852Z,7.73
2022-12-06T14:35:12.447Z,7.13
2022-12-06T14:37:39.701Z,6.97
2022-12-06T14:40:51.139Z,5.83
2022-12-06T14:43:19.442Z,3.90
2022-12-06T14:45:46.923Z,10.27
2022-12-06T14:48:14.858Z,8.13
2022-12-06T14:50:43.449Z,5.70
2022-12-06T14:53:30.151Z,5.53
2022-12-06T14:56:02.704Z,5.43
2022-12-06T14:58:33.109Z,4.93
2022-12-06T15:01:36.449Z,6.20
2022-12-06T15:04:07.190Z,7.30
2022-12-06T15:06:35.754Z,8.27
2022-12-06T15:09:02.437Z,5.27
2022-12-06T15:11:47.713Z,4.60
2022-12-06T15:14:17.557Z,5.93
2022-12-06T15:17:00.193Z,5.80
2022-12-06T15:19:30.182Z,4.07
2022-12-06T15:21:57.784Z,3.73
2022-12-06T15:24:26.902Z,7.07
2022-12-06T15:26:53.929Z,4.37
2022-12-06T15:29:21.479Z,5.23
2022-12-06T15:31:51.464Z,4.30
2022-12-06T15:34:28.119Z,4.43
2022-12-06T15:37:30.211Z,4.70
2022-12-06T15:39:48.423Z,7.73
2022-12-06T15:42:21.843Z,4.17
2022-12-06T15:44:50.355Z,3.80
2022-12-06T15:47:19.800Z,5.67
2022-12-06T15:49:47.704Z,3.47
2022-12-06T15:52:21.808Z,5.10
2022-12-06T15:54:48.640Z,4.90
2022-12-06T15:57:15.740Z,3.57
2022-12-06T15:59:43.724Z,4.47
2022-12-06T16:02:16.885Z,3.50
2022-12-06T16:04:45.567Z,3.23
2022-12-06T16:07:13.541Z,4.13
2022-12-06T16:09:40.275Z,5.33
2022-12-06T16:12:07.283Z,4.47
2022-12-06T16:14:33.998Z,4.37
2022-12-06T16:17:00.772Z,4.70
2022-12-06T16:19:49.956Z,4.07
2022-12-06T16:22:17.255Z,4.93
2022-12-06T16:24:45.454Z,8.57
2022-12-06T16:27:14.206Z,4.53
2022-12-06T16:29:40.929Z,6.07
2022-12-06T16:32:07.974Z,4.50
2022-12-06T16:34:34.761Z,4.57
2022-12-06T16:37:09.074Z,6.77
2022-12-06T16:39:35.867Z,6.03
2022-12-06T16:42:04.684Z,5.60
2022-12-06T16:44:32.556Z,7.00
2022-12-06T16:46:59.694Z,3.50
2022-12-06T16:49:46.499Z,3.97
2022-12-06T16:52:14.568Z,5.03
2022-12-06T16:54:42.171Z,4.67
2022-12-06T16:57:11.818Z,4.87
2022-12-06T16:59:40.326Z,5.53
2022-12-06T17:02:23.281Z,5.97
2022-12-06T17:04:49.972Z,4.33
2022-12-06T17:07:17.517Z,5.00
2022-12-06T17:09:44.186Z,5.87
2022-12-06T17:12:14.069Z,5.47
2022-12-06T17:14:41.566Z,6.83
2022-12-06T17:17:17.716Z,4.30
2022-12-06T17:19:46.284Z,4.93
2022-12-06T17:22:19.299Z,4.27
2022-12-06T17:24:46.475Z,5.70
2022-12-06T17:27:15.047Z,5.30
2022-12-06T17:29:45.635Z,5.87
2022-12-06T17:32:14.680Z,10.70
2022-12-06T17:34:41.563Z,6.23
2022-12-06T17:37:08.455Z,5.70
2022-12-06T17:39:35.332Z,6.67
2022-12-06T17:42:21.820Z,5.10
2022-12-06T17:44:50.673Z,6.90
2022-12-06T17:47:18.969Z,7.87
2022-12-06T17:49:46.620Z,11.80
2022-12-06T17:52:14.891Z,10.80
2022-12-06T17:54:41.743Z,13.83
2022-12-06T17:57:15.430Z,30.83
2022-12-06T17:59:42.264Z,38.83
2022-12-06T18:02:16.058Z,61.60
2022-12-06T18:04:45.038Z,89.03
2022-12-06T18:07:13.457Z,84.83
2022-12-06T18:09:40.921Z,52.30
2022-12-06T18:12:10.015Z,56.00
2022-12-06T18:14:36.819Z,35.77
2022-12-06T18:17:04.445Z,22.47
2022-12-06T18:19:31.885Z,11.77
2022-12-06T18:21:58.888Z,11.77
2022-12-06T18:24:30.456Z,11.30
2022-12-06T18:27:00.920Z,12.30
2022-12-06T18:29:29.133Z,9.87
2022-12-06T18:31:56.140Z,7.37
2022-12-06T18:34:23.134Z,8.30
2022-12-06T18:36:51.000Z,9.33
2022-12-06T18:39:24.526Z,10.63
2022-12-06T18:41:53.210Z,9.90
2022-12-06T18:44:20.130Z,9.43
2022-12-06T18:46:47.137Z,9.50
2022-12-06T18:49:15.551Z,9.13
2022-12-06T18:51:42.552Z,10.00
2022-12-06T18:54:10.780Z,11.40
2022-12-06T18:56:37.596Z,10.73
2022-12-06T18:59:07.301Z,10.93
2022-12-06T19:01:36.571Z,12.93
2022-12-06T19:04:05.767Z,10.73
2022-12-06T19:06:35.699Z,9.20
2022-12-06T19:09:09.561Z,9.83
2022-12-06T19:11:40.877Z,9.60
2022-12-06T19:14:08.265Z,12.13
2022-12-06T19:16:38.151Z,12.80
2022-12-06T19:19:11.453Z,12.47
2022-12-06T19:21:44.896Z,13.57
2022-12-06T19:24:13.253Z,10.13
2022-12-06T19:26:41.954Z,10.90
2022-12-06T19:29:08.986Z,10.30
2022-12-06T19:31:36.205Z,11.17
2022-12-06T19:34:04.150Z,11.20
2022-12-06T19:36:32.239Z,11.03
2022-12-06T19:39:06.279Z,10.77
2022-12-06T19:41:52.694Z,12.50
2022-12-06T19:44:19.422Z,12.47
2022-12-06T19:46:47.945Z,10.90
2022-12-06T19:49:17.959Z,11.67
2022-12-06T19:51:47.725Z,11.17
2022-12-06T19:54:18.799Z,11.83
2022-12-06T19:56:49.448Z,10.97
2022-12-06T19:59:17.529Z,12.27
2022-12-06T20:01:47.965Z,10.57
2022-12-06T20:04:19.192Z,10.67
2022-12-06T20:06:47.935Z,17.77
2022-12-06T20:09:15.296Z,12.27
2022-12-06T20:12:01.520Z,11.57
2022-12-06T20:14:36.039Z,12.23
2022-12-06T20:17:06.945Z,14.23
2022-12-06T20:19:34.535Z,13.97
2022-12-06T20:22:01.963Z,11.70
2022-12-06T20:24:30.612Z,11.13
2022-12-06T20:26:57.782Z,15.63
2022-12-06T20:29:27.017Z,14.60
2022-12-06T20:31:56.097Z,14.27
2022-12-06T20:34:22.805Z,15.07
2022-12-06T20:36:49.896Z,12.30
2022-12-06T20:39:25.092Z,11.60
2022-12-06T20:41:52.456Z,12.97
2022-12-06T20:44:20.922Z,15.13
2022-12-06T20:46:50.925Z,12.80
2022-12-06T20:49:17.989Z,11.23
2022-12-06T20:51:51.106Z,15.07
2022-12-06T20:54:20.216Z,11.40
2022-12-06T20:56:51.110Z,12.87
2022-12-06T20:59:17.999Z,14.30
2022-12-06T21:01:46.398Z,13.77
2022-12-06T21:04:14.338Z,12.30
2022-12-06T21:06:42.713Z,16.93
2022-12-06T21:09:09.466Z,11.90
2022-12-06T21:11:37.516Z,11.13
2022-12-06T21:14:06.324Z,13.73
2022-12-06T21:16:34.340Z,14.53
2022-12-06T21:19:06.591Z,14.10
2022-12-06T21:21:39.691Z,14.00
2022-12-06T21:24:18.765Z,17.67
2022-12-06T21:26:47.179Z,14.27
2022-12-06T21:29:29.739Z,14.13
2022-12-06T21:32:01.178Z,15.53
2022-12-06T21:34:28.031Z,17.47
2022-12-06T21:36:54.726Z,19.07
2022-12-06T21:39:22.480Z,17.43
2022-12-06T21:41:50.578Z,17.00
2022-12-06T21:44:17.707Z,16.10
2022-12-06T21:46:45.594Z,17.73
2022-12-06T21:49:12.958Z,18.10
2022-12-06T21:51:39.712Z,14.50
2022-12-06T21:54:09.181Z,15.93
2022-12-06T21:56:36.035Z,20.37
2022-12-06T21:59:03.755Z,18.57
2022-12-06T22:01:32.729Z,17.73
2022-12-06T22:04:04.637Z,18.17
2022-12-06T22:06:33.607Z,19.47
2022-12-06T22:09:05.824Z,19.63
2022-12-06T22:11:34.530Z,20.00
2022-12-06T22:14:02.466Z,19.50
2022-12-06T22:16:29.560Z,19.90
2022-12-06T22:18:57.385Z,20.07
2022-12-06T22:21:27.081Z,17.80
2022-12-06T22:23:57.470Z,19.23
2022-12-06T22:26:25.286Z,19.07
2022-12-06T22:28:52.375Z,20.60
2022-12-06T22:31:25.076Z,19.70
2022-12-06T22:33:52.389Z,19.37
2022-12-06T22:36:21.013Z,22.03
2022-12-06T22:38:52.394Z,20.53
2022-12-06T22:41:20.984Z,19.80
2022-12-06T22:43:52.732Z,24.40
2022-12-06T22:46:20.970Z,23.43
2022-12-06T22:48:48.649Z,28.77
2022-12-06T22:51:21.404Z,30.23
2022-12-06T22:53:53.193Z,28.43
2022-12-06T22:56:21.104Z,26.97
2022-12-06T22:58:48.106Z,23.00
2022-12-06T23:01:17.993Z,22.27
2022-12-06T23:03:46.866Z,25.00
2022-12-06T23:06:14.540Z,22.80
2022-12-06T23:08:42.289Z,22.50
2022-12-06T23:11:15.071Z,24.27
2022-12-06T23:13:42.335Z,23.57
2022-12-06T23:16:18.270Z,24.93
2022-12-06T23:18:45.791Z,25.87
2022-12-06T23:21:27.883Z,28.70
2022-12-06T23:23:56.657Z,22.77
2022-12-06T23:26:26.485Z,22.60
2022-12-06T23:28:53.644Z,24.17
2022-12-06T23:31:26.183Z,24.47
2022-12-06T23:34:02.084Z,25.07
2022-12-06T23:36:32.249Z,27.97
2022-12-06T23:38:58.952Z,25.20
2022-12-06T23:41:28.391Z,30.77
2022-12-06T23:43:56.428Z,26.93
2022-12-06T23:46:26.765Z,25.67
2022-12-06T23:48:53.918Z,23.07
2022-12-06T23:51:23.684Z,30.40
2022-12-06T23:53:59.360Z,29.80
2022-12-06T23:56:28.582Z,26.97
2022-12-06T23:58:56.026Z,24.67
